Time;durP1;ratioP1;P1;durP2;ratioP2;P2;SDS_P1;SDS_P2;PMS_P1;PMS_P2;Temp;Humidity;BMP_temperature;BMP_pressure;BME280_temperature;BME280_humidity;BME280_pressure;Samples;Min_cycle;Max_cycle;Signal;HPM_P1;HPM_P2
2021/04/14 00:00:21;;;;;;;7.03;3.60;;;;;;;1.09;67.97;101087.59;4951692;28;20126;-69
2021/04/14 00:02:46;;;;;;;9.10;4.05;;;;;;;1.04;67.78;101084.94;4950944;28;20066;-69
2021/04/14 00:05:13;;;;;;;5.70;3.17;;;;;;;1.00;68.05;101074.50;4951026;28;20115;-69
2021/04/14 00:07:39;;;;;;;9.02;3.75;;;;;;;0.99;68.46;101084.03;4951761;28;20517;-69
2021/04/14 00:10:06;;;;;;;7.20;3.30;;;;;;;1.00;68.23;101083.16;4930737;29;20038;-69
2021/04/14 00:12:32;;;;;;;7.38;3.45;;;;;;;0.97;68.43;101083.13;4932069;29;20028;-68
2021/04/14 00:14:57;;;;;;;8.48;4.05;;;;;;;0.94;68.34;101084.84;4930955;29;20073;-70
2021/04/14 00:17:22;;;;;;;8.77;3.53;;;;;;;0.83;68.14;101077.78;4931661;29;20538;-69
2021/04/14 00:19:48;;;;;;;6.03;3.40;;;;;;;0.80;68.14;101082.94;4931950;29;20032;-70
2021/04/14 00:22:13;;;;;;;5.80;3.95;;;;;;;0.74;68.78;101080.28;4932255;29;20031;-68
2021/04/14 00:24:38;;;;;;;10.10;4.60;;;;;;;0.70;69.09;101082.84;4932606;29;20036;-69
2021/04/14 00:27:04;;;;;;;6.00;3.97;;;;;;;0.66;69.34;101081.91;4932004;29;20472;-69
2021/04/14 00:29:29;;;;;;;7.85;4.53;;;;;;;0.70;69.05;101075.06;4932040;29;20128;-68
2021/04/14 00:31:55;;;;;;;10.98;3.85;;;;;;;0.63;69.26;101085.34;4931661;29;20114;-70
2021/04/14 00:34:21;;;;;;;6.50;4.00;;;;;;;0.63;69.42;101085.34;4931923;28;20040;-69
2021/04/14 00:36:48;;;;;;;12.85;4.47;;;;;;;0.63;68.44;101079.28;4914508;29;20063;-70
2021/04/14 00:39:21;;;;;;;5.15;3.30;;;;;;;0.63;68.52;101084.47;4931829;29;20039;-69
2021/04/14 00:41:48;;;;;;;7.47;3.40;;;;;;;0.63;68.44;101085.34;4933377;28;20495;-69
2021/04/14 00:44:14;;;;;;;6.97;4.20;;;;;;;0.61;68.74;101084.44;4948399;28;20050;-69
2021/04/14 00:46:40;;;;;;;7.40;3.65;;;;;;;0.63;68.34;101080.16;4950807;28;20038;-69
2021/04/14 00:49:05;;;;;;;12.35;3.55;;;;;;;0.68;68.38;101072.41;4950811;28;20488;-69
2021/04/14 00:51:32;;;;;;;6.10;3.95;;;;;;;0.73;67.73;101080.25;4951841;28;20036;-69
2021/04/14 00:53:57;;;;;;;7.85;4.78;;;;;;;0.71;68.59;101072.44;4951084;28;20376;-69
2021/04/14 00:56:22;;;;;;;4.93;3.45;;;;;;;0.76;68.44;101080.28;4948267;28;20054;-69
2021/04/14 00:58:48;;;;;;;7.15;3.53;;;;;;;0.91;67.67;101071.81;4960239;28;20079;-49
2021/04/14 01:01:13;;;;;;;9.40;3.83;;;;;;;1.05;67.61;101073.69;4926769;28;20035;-50
2021/04/14 01:03:40;;;;;;;6.95;3.85;;;;;;;1.16;66.66;101072.97;4946279;28;20074;-55
2021/04/14 01:06:13;;;;;;;5.80;3.08;;;;;;;1.24;66.76;101074.75;4940707;28;20495;-52
2021/04/14 01:08:38;;;;;;;7.03;3.63;;;;;;;1.32;66.66;101067.03;4960329;28;20043;-50
2021/04/14 01:11:06;;;;;;;5.50;3.67;;;;;;;1.29;66.00;101059.22;4962008;28;20127;-71
2021/04/14 01:13:32;;;;;;;7.50;3.80;;;;;;;1.23;66.68;101067.84;4945847;28;20036;-71
2021/04/14 01:15:58;;;;;;;6.50;3.70;;;;;;;1.18;66.61;101069.53;4939680;28;20063;-70
2021/04/14 01:18:31;;;;;;;4.90;3.22;;;;;;;1.10;67.61;101058.16;4941925;28;20499;-70
2021/04/14 01:20:58;;;;;;;7.15;3.90;;;;;;;1.04;67.73;101060.72;4941864;28;20499;-70
2021/04/14 01:23:27;;;;;;;6.25;3.97;;;;;;;0.96;67.79;101063.25;4934769;28;20448;-70
2021/04/14 01:25:52;;;;;;;5.70;3.88;;;;;;;0.96;68.30;101063.25;4931809;29;20114;-71
2021/04/14 01:28:22;;;;;;;9.15;3.88;;;;;;;1.00;68.01;101058.94;4935191;29;20492;-71
2021/04/14 01:30:50;;;;;;;6.95;3.58;;;;;;;1.01;68.02;101058.97;4935345;29;20051;-70
2021/04/14 01:33:17;;;;;;;9.77;4.45;;;;;;;1.05;67.92;101067.63;4956306;28;20034;-71
2021/04/14 01:35:43;;;;;;;4.93;3.47;;;;;;;1.05;68.31;101073.69;4956971;28;20035;-71
2021/04/14 01:38:08;;;;;;;6.75;3.47;;;;;;;1.08;67.78;101067.66;4957048;28;20704;-71
2021/04/14 01:40:36;;;;;;;7.72;4.32;;;;;;;1.12;67.28;101060.78;4973709;28;20058;-71
2021/04/14 01:43:02;;;;;;;21.80;11.63;;;;;;;1.08;67.20;101059.88;4973843;28;20780;-71
2021/04/14 01:45:44;;;;;;;8.43;4.93;;;;;;;1.09;67.69;101059.03;4973269;28;20038;-71
2021/04/14 01:48:10;;;;;;;7.30;3.55;;;;;;;1.19;67.19;101065.19;4973357;28;20043;-69
2021/04/14 01:50:36;;;;;;;8.13;4.45;;;;;;;1.22;66.70;101055.69;4973555;28;20034;-71
2021/04/14 01:53:04;;;;;;;11.20;5.88;;;;;;;1.25;66.97;101049.66;4973048;28;20491;-71
2021/04/14 01:55:29;;;;;;;6.53;3.80;;;;;;;1.30;66.58;101053.16;4972672;28;20483;-71
2021/04/14 01:57:56;;;;;;;9.18;4.20;;;;;;;1.22;66.72;101049.63;4973231;28;20043;-71
2021/04/14 02:00:32;;;;;;;6.30;3.65;;;;;;;1.14;67.34;101046.97;4973753;28;20038;-70
2021/04/14 02:02:58;;;;;;;7.93;4.78;;;;;;;1.09;67.91;101047.78;4972959;28;20367;-71
2021/04/14 02:05:28;;;;;;;5.55;4.10;;;;;;;1.06;67.63;101054.69;4972822;28;20037;-71
2021/04/14 02:07:53;;;;;;;5.18;3.47;;;;;;;1.09;67.21;101050.38;4963937;28;20042;-70
2021/04/14 02:10:20;;;;;;;4.65;3.40;;;;;;;1.06;67.49;101049.50;4934725;29;20035;-71
2021/04/14 02:12:46;;;;;;;6.32;3.38;;;;;;;1.00;67.96;101051.13;4949928;28;20043;-71
2021/04/14 02:15:16;;;;;;;5.18;3.75;;;;;;;0.95;68.26;101045.91;4953173;28;20127;-70
2021/04/14 02:17:41;;;;;;;6.38;3.50;;;;;;;0.95;68.13;101047.63;4953014;28;20106;-70
2021/04/14 02:20:08;;;;;;;9.20;3.22;;;;;;;0.90;67.58;101055.38;4953085;28;20487;-71
2021/04/14 02:22:33;;;;;;;8.20;3.03;;;;;;;0.89;68.37;101053.63;4952982;28;20086;-71
2021/04/14 02:24:59;;;;;;;6.78;3.65;;;;;;;0.82;69.07;101055.28;4953384;28;20121;-71
2021/04/14 02:27:24;;;;;;;11.07;4.22;;;;;;;0.73;69.12;101049.97;4953231;28;20035;-71
2021/04/14 02:29:49;;;;;;;5.55;3.65;;;;;;;0.74;69.34;101051.75;4952818;28;20035;-71
2021/04/14 02:32:15;;;;;;;5.85;3.40;;;;;;;0.73;69.66;101051.72;4936112;28;20043;-72
2021/04/14 02:34:41;;;;;;;7.60;3.28;;;;;;;0.66;70.28;101049.91;4954544;28;20166;-72
2021/04/14 02:37:06;;;;;;;13.98;4.28;;;;;;;0.62;70.45;101052.47;4963578;28;20502;-71
2021/04/14 02:39:31;;;;;;;5.32;3.03;;;;;;;0.57;69.73;101045.50;4952752;28;20039;-72
2021/04/14 02:41:57;;;;;;;6.72;3.50;;;;;;;0.55;69.48;101054.97;4955410;28;20036;-72
2021/04/14 02:44:22;;;;;;;8.43;3.75;;;;;;;0.53;70.58;101054.09;4934608;29;20089;-72
2021/04/14 02:46:48;;;;;;;9.23;3.08;;;;;;;0.47;70.21;101041.91;4933555;29;20411;-72
2021/04/14 02:49:13;;;;;;;4.70;3.05;;;;;;;0.45;70.50;101048.81;4933987;29;20035;-71
2021/04/14 02:51:39;;;;;;;5.32;3.83;;;;;;;0.46;70.11;101050.53;4933307;29;20043;-71
2021/04/14 02:54:04;;;;;;;13.68;3.75;;;;;;;0.42;70.50;101043.59;4938674;28;20039;-71
2021/04/14 02:56:29;;;;;;;6.35;3.92;;;;;;;0.37;70.09;101046.13;4941478;28;20166;-71
2021/04/14 02:58:55;;;;;;;6.95;3.60;;;;;;;0.31;70.13;101043.44;4964839;28;20114;-72
2021/04/14 03:01:20;;;;;;;6.13;2.88;;;;;;;0.30;70.12;101035.66;4972358;28;20039;-72
2021/04/14 03:03:46;;;;;;;7.45;3.22;;;;;;;0.25;70.63;101045.97;4972754;28;20139;-71
2021/04/14 03:06:11;;;;;;;8.07;3.45;;;;;;;0.18;70.34;101038.94;4971630;28;20043;-71
2021/04/14 03:08:37;;;;;;;7.57;2.65;;;;;;;0.14;70.99;101031.97;4971966;28;20039;-70
2021/04/14 03:11:02;;;;;;;5.70;3.28;;;;;;;0.10;70.19;101032.75;4972376;28;20506;-70
2021/04/14 03:13:28;;;;;;;7.70;3.45;;;;;;;-0.01;70.75;101030.03;4974344;28;20509;-70
2021/04/14 03:15:53;;;;;;;9.88;3.38;;;;;;;-0.03;70.83;101042.09;4975617;28;20038;-71
2021/04/14 03:18:19;;;;;;;10.45;3.30;;;;;;;-0.02;70.80;101029.19;4976760;28;20039;-70
2021/04/14 03:20:45;;;;;;;5.72;3.22;;;;;;;-0.01;70.55;101032.63;4974896;28;20035;-71
2021/04/14 03:23:13;;;;;;;7.70;2.90;;;;;;;0.01;69.76;101030.06;4965778;28;20066;-71
2021/04/14 03:25:39;;;;;;;6.13;2.60;;;;;;;0.05;69.17;101037.03;4924618;28;20039;-72
2021/04/14 03:28:05;;;;;;;6.38;2.97;;;;;;;0.02;69.84;101027.47;4962997;28;20037;-72
2021/04/14 03:30:31;;;;;;;15.05;3.92;;;;;;;-0.02;69.85;101026.59;4956225;28;20036;-71
2021/04/14 03:32:57;;;;;;;13.48;4.40;;;;;;;-0.07;69.92;101024.78;4954123;28;20129;-72
2021/04/14 03:35:25;;;;;;;3.47;2.40;;;;;;;-0.11;70.20;101026.44;4953214;28;20122;-71
2021/04/14 03:37:51;;;;;;;8.60;3.10;;;;;;;-0.14;70.43;101030.72;4952269;28;20047;-71
2021/04/14 03:40:17;;;;;;;4.57;2.75;;;;;;;-0.18;70.81;101027.19;4935374;28;20102;-71
2021/04/14 03:42:43;;;;;;;11.23;3.28;;;;;;;-0.21;71.11;101024.56;4934864;28;20031;-71
2021/04/14 03:45:14;;;;;;;6.70;3.28;;;;;;;-0.26;70.96;101021.91;4952198;28;20042;-71
2021/04/14 03:47:41;;;;;;;5.18;2.78;;;;;;;-0.29;70.71;101021.00;4945692;28;20054;-71
2021/04/14 03:50:10;;;;;;;5.68;3.17;;;;;;;-0.31;71.22;101015.78;4959434;28;20467;-71
2021/04/14 03:52:36;;;;;;;6.15;3.38;;;;;;;-0.34;71.24;101020.94;4952164;28;20031;-70
2021/04/14 03:55:01;;;;;;;6.60;2.83;;;;;;;-0.35;70.72;101021.75;4973026;28;20035;-70
2021/04/14 03:57:27;;;;;;;7.75;2.92;;;;;;;-0.38;71.42;101029.50;4973542;28;20121;-72
2021/04/14 03:59:52;;;;;;;4.43;2.75;;;;;;;-0.34;71.06;101027.84;4973652;28;20034;-71
2021/04/14 04:02:17;;;;;;;9.55;4.70;;;;;;;-0.40;71.30;101026.00;4972435;28;20031;-71
2021/04/14 04:04:43;;;;;;;7.15;3.17;;;;;;;-0.45;71.37;101028.53;4944571;28;20032;-70
2021/04/14 04:07:08;;;;;;;7.03;3.25;;;;;;;-0.48;71.67;101022.44;4968592;28;20059;-71
2021/04/14 04:09:33;;;;;;;6.45;2.83;;;;;;;-0.52;71.68;101015.44;4970851;28;20038;-71
2021/04/14 04:11:59;;;;;;;6.05;3.03;;;;;;;-0.58;71.68;101023.16;4971358;28;20046;-71
2021/04/14 04:14:28;;;;;;;11.30;3.47;;;;;;;-0.59;71.45;101019.69;4974422;28;20035;-71
2021/04/14 04:16:53;;;;;;;9.63;3.65;;;;;;;-0.59;71.89;101021.38;4957751;28;20093;-71
2021/04/14 04:19:18;;;;;;;8.80;3.45;;;;;;;-0.61;71.50;101020.50;4978447;28;20042;-69
2021/04/14 04:21:44;;;;;;;4.03;2.17;;;;;;;-0.56;71.53;101016.28;4972360;28;20030;-72
2021/04/14 04:24:09;;;;;;;4.38;2.38;;;;;;;-0.52;71.46;101018.91;4971605;28;20062;-71
2021/04/14 04:26:34;;;;;;;8.18;3.97;;;;;;;-0.51;71.23;101014.63;4971099;28;20129;-70
2021/04/14 04:29:00;;;;;;;5.03;2.47;;;;;;;-0.51;71.65;101018.06;4973250;28;20035;-73
2021/04/14 04:31:25;;;;;;;6.93;3.00;;;;;;;-0.53;71.15;101024.09;4971987;28;20081;-70
2021/04/14 04:33:50;;;;;;;7.90;3.83;;;;;;;-0.59;71.44;101017.09;4971594;28;20042;-71
2021/04/14 04:36:16;;;;;;;4.75;2.80;;;;;;;-0.67;71.60;101011.75;4972610;28;20042;-71
2021/04/14 04:38:41;;;;;;;5.20;2.53;;;;;;;-0.66;72.01;101013.53;4955515;28;20038;-71
2021/04/14 04:41:07;;;;;;;6.00;3.20;;;;;;;-0.65;71.78;101011.81;4963948;28;20094;-71
2021/04/14 04:43:32;;;;;;;4.85;3.63;;;;;;;-0.67;71.80;101022.13;4962810;28;20038;-71
2021/04/14 04:45:58;;;;;;;3.95;2.53;;;;;;;-0.65;71.56;101015.25;4964078;28;20057;-71
2021/04/14 04:48:24;;;;;;;13.55;3.70;;;;;;;-0.60;71.64;101017.06;4971293;28;20785;-71
2021/04/14 04:50:49;;;;;;;11.38;4.53;;;;;;;-0.61;71.08;101029.16;4917897;29;20042;-71
2021/04/14 04:53:21;;;;;;;9.48;3.75;;;;;;;-0.66;70.97;101023.88;4915123;29;20130;-71
2021/04/14 04:55:48;;;;;;;5.60;2.95;;;;;;;-0.60;71.07;101023.09;4914985;29;20043;-71
2021/04/14 04:58:14;;;;;;;7.70;3.50;;;;;;;-0.56;70.94;101030.09;4931783;29;20044;-71
2021/04/14 05:00:40;;;;;;;7.50;2.92;;;;;;;-0.55;70.42;101024.03;4931576;29;20428;-71
2021/04/14 05:03:06;;;;;;;4.00;2.72;;;;;;;-0.49;70.33;101034.53;4935054;29;20038;-72
2021/04/14 05:05:35;;;;;;;20.67;5.07;;;;;;;-0.51;70.46;101030.16;4950059;28;20105;-72
2021/04/14 05:08:00;;;;;;;12.18;4.38;;;;;;;-0.55;70.39;101028.38;4960894;28;20039;-70
2021/04/14 05:10:26;;;;;;;10.25;4.47;;;;;;;-0.63;71.02;101028.25;4955198;28;20046;-71
2021/04/14 05:12:53;;;;;;;7.25;3.22;;;;;;;-0.53;70.69;101029.25;4973579;28;20073;-71
2021/04/14 05:15:34;;;;;;;7.13;3.08;;;;;;;-0.58;71.14;101023.16;4973367;28;20070;-71
2021/04/14 05:18:00;;;;;;;10.43;3.85;;;;;;;-0.59;71.68;101030.03;4973931;28;20058;-71
2021/04/14 05:20:26;;;;;;;14.38;5.22;;;;;;;-0.53;71.49;101027.53;4973988;28;20462;-71
2021/04/14 05:22:52;;;;;;;10.15;4.95;;;;;;;-0.48;71.91;101023.31;4971778;28;20058;-71
2021/04/14 05:25:21;;;;;;;9.40;3.92;;;;;;;-0.33;71.24;101034.75;4953552;28;20065;-70
2021/04/14 05:27:47;;;;;;;10.35;4.57;;;;;;;-0.17;69.82;101031.56;4954240;28;20704;-71
2021/04/14 05:30:14;;;;;;;11.48;3.40;;;;;;;-0.09;70.42;101036.84;4954670;28;20388;-71
2021/04/14 05:32:41;;;;;;;23.23;5.15;;;;;;;0.10;70.09;101041.44;4956170;28;20040;-72
2021/04/14 05:35:08;;;;;;;9.25;4.65;;;;;;;0.14;69.24;101040.59;4954556;28;20098;-71
2021/04/14 05:37:33;;;;;;;14.02;3.88;;;;;;;0.24;68.37;101039.00;4953824;28;20043;-70
2021/04/14 05:39:58;;;;;;;8.20;3.33;;;;;;;0.32;68.56;101042.59;4954107;28;20098;-72
2021/04/14 05:42:24;;;;;;;7.57;3.55;;;;;;;0.40;68.03;101040.09;4954613;28;20126;-71
2021/04/14 05:44:50;;;;;;;8.48;4.10;;;;;;;0.47;67.94;101038.44;4954541;28;20471;-70
2021/04/14 05:47:15;;;;;;;7.25;3.85;;;;;;;0.56;68.40;101051.50;4953120;28;20562;-71
2021/04/14 05:49:40;;;;;;;18.73;4.25;;;;;;;0.62;67.91;101052.47;4953954;28;20031;-71
2021/04/14 05:52:06;;;;;;;9.35;4.38;;;;;;;0.77;67.41;101054.38;4936473;28;20039;-70
2021/04/14 05:54:31;;;;;;;6.22;3.47;;;;;;;0.94;66.41;101051.09;4954016;28;20043;-70
2021/04/14 05:56:57;;;;;;;7.90;3.20;;;;;;;1.01;67.04;101051.16;4954538;28;20048;-71
2021/04/14 05:59:23;;;;;;;6.85;3.22;;;;;;;1.09;66.67;101048.66;4937770;28;20046;-70
2021/04/14 06:01:48;;;;;;;7.25;3.60;;;;;;;1.14;65.81;101051.28;4937929;28;21468;-71
2021/04/14 06:04:16;;;;;;;8.32;3.92;;;;;;;1.16;65.91;101054.78;4954398;28;20039;-71
2021/04/14 06:06:42;;;;;;;12.38;4.35;;;;;;;1.22;66.22;101050.50;4963393;28;20089;-71
2021/04/14 06:09:08;;;;;;;8.65;3.97;;;;;;;1.33;66.20;101053.22;4974493;28;20121;-71
2021/04/14 06:11:35;;;;;;;13.05;5.03;;;;;;;1.44;65.87;101054.16;4976122;28;20043;-72
2021/04/14 06:14:00;;;;;;;9.93;3.10;;;;;;;1.56;65.59;101049.94;4955965;28;20042;-70
2021/04/14 06:16:26;;;;;;;7.18;3.85;;;;;;;1.67;65.21;101056.06;4975136;28;20529;-70
2021/04/14 06:18:51;;;;;;;5.30;3.28;;;;;;;1.84;64.96;101057.06;4975774;28;20042;-71
2021/04/14 06:21:18;;;;;;;8.07;4.25;;;;;;;1.93;64.64;101057.13;4975654;28;20565;-71
2021/04/14 06:23:45;;;;;;;6.93;4.05;;;;;;;1.95;64.82;101059.75;4975513;28;20495;-71
2021/04/14 06:26:17;;;;;;;7.95;5.00;;;;;;;2.08;64.27;101060.69;4973456;28;20471;-70
2021/04/14 06:28:42;;;;;;;10.07;4.60;;;;;;;2.12;64.75;101055.50;4935756;29;20082;-70
2021/04/14 06:31:10;;;;;;;7.05;3.78;;;;;;;2.32;64.64;101059.97;4937691;29;20126;-71
2021/04/14 06:33:38;;;;;;;9.30;4.82;;;;;;;2.34;63.74;101059.09;4935125;29;20058;-71
2021/04/14 06:36:06;;;;;;;11.73;4.82;;;;;;;2.36;63.92;101072.09;4935730;29;20103;-71
2021/04/14 06:38:35;;;;;;;10.98;4.72;;;;;;;2.66;62.92;101066.19;4934038;29;20399;-71
2021/04/14 06:44:04;;;;;;;7.38;4.13;;;;;;;2.83;61.74;101062.75;4933698;29;20147;-70
2021/04/14 06:46:34;;;;;;;16.90;4.75;;;;;;;2.94;61.36;101055.84;4933862;29;20134;-70
2021/04/14 06:49:20;;;;;;;6.43;4.55;;;;;;;3.49;60.20;101053.28;4940778;28;20043;-70
2021/04/14 06:52:10;;;;;;;8.02;4.70;;;;;;;4.26;57.99;101046.25;4952630;28;20050;-71
2021/04/14 06:54:53;;;;;;;10.40;4.50;;;;;;;4.95;55.66;101047.69;4935513;28;20094;-72
2021/04/14 06:57:23;;;;;;;7.03;4.57;;;;;;;5.68;54.37;101038.41;4951264;28;20379;-70
2021/04/14 07:00:13;;;;;;;8.75;4.88;;;;;;;6.38;52.05;101036.00;4933436;28;20058;-70
2021/04/14 07:02:49;;;;;;;8.55;4.68;;;;;;;7.01;51.14;101029.91;4952023;28;20031;-71
2021/04/14 07:05:22;;;;;;;8.38;4.72;;;;;;;7.69;49.67;101030.56;4952635;28;20066;-71
2021/04/14 07:07:51;;;;;;;7.95;4.63;;;;;;;8.26;48.10;101034.78;4952082;28;20110;-71
2021/04/14 07:10:21;;;;;;;7.07;4.53;;;;;;;8.75;46.12;101031.16;4948088;28;20072;-70
2021/04/14 07:12:48;;;;;;;10.80;4.75;;;;;;;9.17;45.16;101025.84;4952728;28;20050;-71
2021/04/14 07:15:17;;;;;;;9.55;5.88;;;;;;;9.75;44.26;101027.94;4951781;28;20039;-70
2021/04/14 07:17:53;;;;;;;16.02;5.32;;;;;;;10.16;43.21;101026.81;4953076;28;20467;-70
2021/04/14 07:20:25;;;;;;;10.95;5.00;;;;;;;10.56;41.77;101022.22;4952557;28;20043;-70
2021/04/14 07:23:10;;;;;;;6.00;3.40;;;;;;;10.49;41.60;101021.56;4952208;28;20403;-71
2021/04/14 07:25:41;;;;;;;5.93;3.85;;;;;;;10.49;41.01;101024.19;4951032;28;20035;-72
2021/04/14 07:28:18;;;;;;;7.25;4.57;;;;;;;10.69;37.97;101021.81;4952253;28;20093;-71
2021/04/14 07:30:48;;;;;;;7.82;4.63;;;;;;;10.49;37.57;101025.06;4951801;28;20051;-70
2021/04/14 07:33:29;;;;;;;11.45;4.93;;;;;;;10.61;37.19;101018.56;4934595;28;20051;-70
2021/04/14 07:36:06;;;;;;;13.50;6.32;;;;;;;10.74;37.05;101021.69;4951549;28;20539;-70
2021/04/14 07:38:48;;;;;;;7.53;3.53;;;;;;;11.21;36.07;101015.84;4951748;28;20553;-70
2021/04/14 07:41:29;;;;;;;10.10;5.20;;;;;;;10.95;36.16;101017.53;4952535;28;20430;-70
2021/04/14 07:43:57;;;;;;;16.80;5.22;;;;;;;11.31;33.91;101015.50;4963527;28;20030;-70
2021/04/14 07:46:25;;;;;;;6.57;4.63;;;;;;;11.81;32.14;101018.25;4951307;28;20041;-70
2021/04/14 07:48:53;;;;;;;12.20;4.75;;;;;;;12.15;32.22;101016.19;4960722;28;20035;-70
2021/04/14 07:51:19;;;;;;;6.55;4.95;;;;;;;12.10;30.06;101015.50;4970834;28;20038;-70
2021/04/14 07:54:07;;;;;;;6.35;4.85;;;;;;;12.52;27.78;101007.75;4971006;28;20037;-70
2021/04/14 07:56:59;;;;;;;8.73;6.28;;;;;;;12.39;26.59;101012.66;4970443;28;20042;-70
2021/04/14 07:59:30;;;;;;;10.93;5.40;;;;;;;12.11;27.60;101012.81;4967700;28;20466;-70
2021/04/14 08:02:13;;;;;;;7.00;4.72;;;;;;;12.36;28.30;101011.94;4956612;28;20538;-72
2021/04/14 08:04:42;;;;;;;9.40;5.30;;;;;;;12.61;28.20;101011.88;4952035;28;20078;-71
2021/04/14 08:07:17;;;;;;;9.00;5.38;;;;;;;12.82;25.35;101020.75;4947831;28;20115;-71
2021/04/14 08:09:57;;;;;;;8.68;5.00;;;;;;;13.02;24.46;101012.91;4951039;28;20028;-71
2021/04/14 08:12:28;;;;;;;8.68;6.22;;;;;;;13.57;23.85;101014.25;4943819;28;20035;-71
2021/04/14 08:15:07;;;;;;;9.50;6.38;;;;;;;13.45;23.88;101013.84;4932956;28;20043;-69
2021/04/14 08:17:32;;;;;;;14.18;6.10;;;;;;;13.80;25.27;101008.81;4950680;28;20043;-70
2021/04/14 08:20:04;;;;;;;11.50;7.00;;;;;;;13.86;23.20;101013.88;4957056;28;20039;-70
2021/04/14 08:22:30;;;;;;;15.95;6.32;;;;;;;14.60;21.85;101013.28;4957746;28;20546;-70
2021/04/14 08:25:01;;;;;;;9.98;6.32;;;;;;;14.64;22.12;101013.97;4952726;28;20113;-70
2021/04/14 08:27:29;;;;;;;15.43;8.55;;;;;;;14.34;22.54;101011.75;4942341;28;20372;-71
2021/04/14 08:30:10;;;;;;;10.88;6.68;;;;;;;14.46;21.49;101008.56;4946249;28;20059;-72
2021/04/14 08:32:52;;;;;;;32.47;11.75;;;;;;;14.63;21.86;101009.63;4942280;28;20038;-71
2021/04/14 08:35:40;;;;;;;10.05;6.45;;;;;;;14.25;20.98;101007.75;4938877;28;20040;-70
2021/04/14 08:38:15;;;;;;;12.18;6.53;;;;;;;14.53;21.41;101009.16;4953114;28;20446;-71
2021/04/14 08:40:44;;;;;;;8.55;6.00;;;;;;;14.33;21.41;101010.06;4944190;28;20039;-69
2021/04/14 08:43:13;;;;;;;16.25;6.32;;;;;;;14.32;22.40;101003.00;4947205;28;20189;-70
2021/04/14 08:45:45;;;;;;;7.75;6.03;;;;;;;13.55;22.95;101006.38;4940736;28;20533;-70
2021/04/14 08:48:23;;;;;;;11.00;6.85;;;;;;;13.31;23.04;101013.53;4967101;28;20070;-66
2021/04/14 08:50:52;;;;;;;11.10;6.50;;;;;;;13.59;22.06;101002.66;4963381;28;20032;-66
2021/04/14 08:53:24;;;;;;;14.88;7.85;;;;;;;12.97;22.82;100998.09;4954796;28;20041;-66
2021/04/14 08:55:49;;;;;;;9.68;6.82;;;;;;;12.67;22.98;101006.31;4950566;28;20055;-69
2021/04/14 08:58:18;;;;;;;16.60;7.03;;;;;;;12.80;25.11;101001.44;4946770;28;20569;-70
2021/04/14 09:00:44;;;;;;;10.55;6.47;;;;;;;12.48;23.69;100997.34;4950909;28;20062;-70
2021/04/14 09:03:11;;;;;;;17.42;7.85;;;;;;;12.32;24.52;100997.06;4942964;28;20054;-70
2021/04/14 09:05:37;;;;;;;13.93;7.88;;;;;;;13.13;22.00;100995.72;4951044;28;20031;-71
2021/04/14 09:08:09;;;;;;;11.88;7.47;;;;;;;12.58;24.70;101012.84;4968911;28;20123;-71
2021/04/14 09:10:50;;;;;;;9.45;6.90;;;;;;;12.00;23.09;100999.09;4968915;28;20031;-69
2021/04/14 09:13:15;;;;;;;9.80;6.70;;;;;;;11.49;23.67;101002.59;4968831;28;20117;-69
2021/04/14 09:16:07;;;;;;;13.77;7.35;;;;;;;11.13;23.86;101005.53;4954758;28;20475;-69
2021/04/14 09:18:43;;;;;;;10.40;7.15;;;;;;;11.55;23.44;101005.91;4948566;28;20122;-71
2021/04/14 09:21:12;;;;;;;10.07;6.50;;;;;;;11.90;23.27;101003.00;4948825;28;20109;-70
2021/04/14 09:23:45;;;;;;;12.50;7.50;;;;;;;11.47;24.21;101007.06;4948613;28;20039;-73
2021/04/14 09:26:25;;;;;;;10.52;7.07;;;;;;;10.95;24.72;101004.31;4948675;28;20098;-72
2021/04/14 09:28:51;;;;;;;10.35;6.95;;;;;;;10.67;25.95;101004.31;4948955;28;20101;-72
2021/04/14 09:31:40;;;;;;;13.38;7.10;;;;;;;10.32;26.79;101003.59;4931297;28;20039;-70
2021/04/14 09:34:16;;;;;;;12.70;7.35;;;;;;;10.09;27.15;101005.06;4949053;28;20038;-71
2021/04/14 09:36:47;;;;;;;10.68;7.13;;;;;;;9.90;27.21;101003.84;4948350;28;20079;-72
2021/04/14 09:39:28;;;;;;;10.75;7.07;;;;;;;9.84;28.15;100999.56;4948840;28;20043;-72
2021/04/14 09:41:54;;;;;;;12.73;7.47;;;;;;;9.67;28.26;100996.53;4968492;28;20043;-72
2021/04/14 09:44:39;;;;;;;10.23;7.93;;;;;;;9.75;29.62;100999.84;4931615;28;20043;-72
2021/04/14 09:47:32;;;;;;;11.00;7.38;;;;;;;9.78;28.82;101002.38;4948600;28;20126;-70
2021/04/14 09:50:01;;;;;;;10.40;5.72;;;;;;;9.98;29.17;100996.59;4938994;28;20035;-70
2021/04/14 09:52:46;;;;;;;9.70;7.20;;;;;;;9.85;29.01;100997.84;4913264;29;20507;-70
2021/04/14 09:55:29;;;;;;;11.57;7.13;;;;;;;9.81;29.59;100993.53;4947529;28;20149;-70
2021/04/14 09:57:54;;;;;;;14.95;7.68;;;;;;;9.83;28.92;100992.59;4952106;28;20125;-70
2021/04/14 10:00:24;;;;;;;10.90;7.63;;;;;;;9.84;28.23;100999.56;4932271;29;20507;-70
2021/04/14 10:02:58;;;;;;;11.02;7.85;;;;;;;9.83;28.24;100997.00;4939516;28;20051;-70
2021/04/14 10:05:31;;;;;;;10.27;7.10;;;;;;;9.77;28.13;100989.25;4948817;28;20050;-69
2021/04/14 10:08:02;;;;;;;17.15;6.95;;;;;;;9.65;27.98;100987.81;4944161;28;20042;-69
2021/04/14 10:10:28;;;;;;;14.70;6.97;;;;;;;9.70;28.64;100991.19;4967823;28;20034;-70
2021/04/14 10:12:56;;;;;;;9.77;6.78;;;;;;;9.98;28.69;100985.19;4941919;28;20043;-71
2021/04/14 10:15:34;;;;;;;8.50;6.15;;;;;;;12.16;26.41;100983.56;4928862;29;20047;-71
2021/04/14 10:18:16;;;;;;;11.98;7.28;;;;;;;13.49;24.86;100981.00;4963231;28;20035;-71
2021/04/14 10:20:41;;;;;;;15.98;7.43;;;;;;;12.91;24.53;100982.47;4936322;28;20103;-70
2021/04/14 10:23:12;;;;;;;7.95;5.75;;;;;;;12.33;25.25;100982.94;4951820;28;20039;-70
2021/04/14 10:25:41;;;;;;;14.43;7.25;;;;;;;12.27;26.56;100984.03;4948209;28;20066;-70
2021/04/14 10:28:15;;;;;;;11.80;7.13;;;;;;;12.49;26.07;100983.22;4948309;28;20046;-71
2021/04/14 10:30:46;;;;;;;11.90;7.78;;;;;;;11.85;27.66;100981.13;4948062;28;20039;-71
2021/04/14 10:33:18;;;;;;;11.48;6.85;;;;;;;11.15;28.66;100979.97;4938926;28;20043;-70
2021/04/14 10:35:45;;;;;;;25.77;8.65;;;;;;;10.90;29.29;100983.38;4941143;28;20043;-70
2021/04/14 10:38:10;;;;;;;12.63;6.70;;;;;;;10.84;28.44;100975.66;4963346;28;20101;-70
2021/04/14 10:40:39;;;;;;;16.60;7.88;;;;;;;10.74;29.16;100976.84;4951824;28;20046;-70
2021/04/14 10:43:20;;;;;;;12.23;7.80;;;;;;;10.51;28.19;100967.00;4957848;28;20035;-70
2021/04/14 10:46:03;;;;;;;14.07;6.13;;;;;;;10.43;28.77;100975.13;4966173;28;20027;-70
2021/04/14 10:48:30;;;;;;;9.88;6.97;;;;;;;10.35;29.49;100971.00;4966646;28;20086;-70
2021/04/14 10:51:22;;;;;;;10.38;7.57;;;;;;;10.34;30.58;100967.50;4967408;28;20517;-69
2021/04/14 10:53:53;;;;;;;13.38;8.48;;;;;;;10.24;30.42;100966.88;4966706;28;20054;-70
2021/04/14 10:56:22;;;;;;;11.82;8.13;;;;;;;10.12;29.90;100966.38;4966599;28;20043;-70
2021/04/14 10:58:49;;;;;;;12.85;7.20;;;;;;;9.98;30.25;100957.06;4966288;28;20089;-69
2021/04/14 11:01:17;;;;;;;37.78;14.77;;;;;;;9.86;30.66;100960.03;4944918;28;20048;-69
2021/04/14 11:03:45;;;;;;;20.67;8.18;;;;;;;9.83;30.17;100952.22;4928412;29;20050;-70
2021/04/14 11:06:12;;;;;;;12.45;7.22;;;;;;;9.82;30.02;100953.13;4910431;29;20043;-71
2021/04/14 11:08:41;;;;;;;10.23;7.28;;;;;;;10.17;29.92;100953.94;4929302;29;20043;-71
2021/04/14 11:11:07;;;;;;;15.20;7.85;;;;;;;10.37;29.74;100946.31;4930729;28;20041;-71
2021/04/14 11:13:36;;;;;;;12.00;7.28;;;;;;;10.74;29.20;100948.69;4931694;29;20035;-71
2021/04/14 11:16:02;;;;;;;13.77;9.40;;;;;;;10.95;29.03;100943.63;4949502;28;20579;-70
2021/04/14 11:18:36;;;;;;;11.02;8.05;;;;;;;10.85;28.63;100937.78;4948757;28;20372;-70
2021/04/14 11:23:37;;;;;;;22.58;11.85;;;;;;;10.41;29.17;100936.53;4947574;28;20035;-70
2021/04/14 11:26:11;;;;;;;15.88;9.77;;;;;;;10.23;30.50;100936.16;4947915;28;20558;-70
2021/04/14 11:28:56;;;;;;;18.23;9.25;;;;;;;9.89;31.17;100928.34;4947363;28;20482;-72
2021/04/14 11:31:37;;;;;;;17.00;8.27;;;;;;;9.82;32.39;100926.78;4947586;28;20046;-70
2021/04/14 11:34:13;;;;;;;14.07;8.40;;;;;;;9.61;34.04;100946.69;4948455;28;20574;-69
2021/04/14 11:36:39;;;;;;;16.75;8.07;;;;;;;9.33;35.24;100936.88;4946699;28;20054;-69
2021/04/14 11:39:07;;;;;;;13.65;8.52;;;;;;;8.79;36.77;100953.09;4948365;28;20035;-70
2021/04/14 11:41:38;;;;;;;14.43;9.35;;;;;;;8.51;35.96;100947.59;4947600;28;20039;-72